sensor_id;sensor_type;location;lat;lon;timestamp;pressure;altitude;pressure_sealevel;temperature;humidity
31346;BME280;21711;49.708;18.568;2023-04-25T00:01:17;96364.34;;;11.22;100.00
31346;BME280;21711;49.708;18.568;2023-04-25T00:03:45;96353.78;;;11.08;100.00
31346;BME280;21711;49.708;18.568;2023-04-25T00:06:13;96356.28;;;11.27;100.00
31346;BME280;21711;49.708;18.568;2023-04-25T00:08:41;96359.22;;;11.25;100.00
31346;BME280;21711;49.708;18.568;2023-04-25T00:11:08;96357.69;;;11.10;100.00
31346;BME280;21711;49.708;18.568;2023-04-25T00:13:35;96360.91;;;11.21;100.00
31346;BME280;21711;49.708;18.568;2023-04-25T00:16:03;96360.38;;;11.33;100.00
31346;BME280;21711;49.708;18.568;2023-04-25T00:18:31;96355.72;;;11.16;100.00
31346;BME280;21711;49.708;18.568;2023-04-25T00:21:00;96355.59;;;11.21;100.00
31346;BME280;21711;49.708;18.568;2023-04-25T00:23:27;96356.81;;;11.15;100.00
31346;BME280;21711;49.708;18.568;2023-04-25T00:25:54;96353.19;;;11.11;100.00
31346;BME280;21711;49.708;18.568;2023-04-25T00:28:22;96353.44;;;11.23;100.00
31346;BME280;21711;49.708;18.568;2023-04-25T00:30:49;96351.88;;;11.22;100.00
31346;BME280;21711;49.708;18.568;2023-04-25T00:33:17;96354.00;;;11.34;100.00
31346;BME280;21711;49.708;18.568;2023-04-25T00:35:44;96360.38;;;11.33;100.00
31346;BME280;21711;49.708;18.568;2023-04-25T00:38:11;96356.75;;;11.29;100.00
31346;BME280;21711;49.708;18.568;2023-04-25T00:40:39;96363.03;;;11.19;100.00
31346;BME280;21711;49.708;18.568;2023-04-25T00:43:06;96367.56;;;10.82;100.00
31346;BME280;21711;49.708;18.568;2023-04-25T00:45:36;96361.91;;;11.11;100.00
31346;BME280;21711;49.708;18.568;2023-04-25T00:48:05;96364.75;;;11.01;100.00
31346;BME280;21711;49.708;18.568;2023-04-25T00:50:36;96359.00;;;10.99;100.00
31346;BME280;21711;49.708;18.568;2023-04-25T00:53:04;96366.31;;;11.02;100.00
31346;BME280;21711;49.708;18.568;2023-04-25T00:55:31;96363.50;;;10.98;100.00
31346;BME280;21711;49.708;18.568;2023-04-25T00:58:01;96369.44;;;10.67;100.00
31346;BME280;21711;49.708;18.568;2023-04-25T01:00:29;96362.03;;;10.92;100.00
31346;BME280;21711;49.708;18.568;2023-04-25T01:02:57;96368.59;;;10.95;100.00
31346;BME280;21711;49.708;18.568;2023-04-25T01:05:26;96368.78;;;10.98;100.00
31346;BME280;21711;49.708;18.568;2023-04-25T01:07:53;96367.63;;;10.90;100.00
31346;BME280;21711;49.708;18.568;2023-04-25T01:10:21;96378.00;;;10.73;100.00
31346;BME280;21711;49.708;18.568;2023-04-25T01:12:48;96386.44;;;10.89;100.00
31346;BME280;21711;49.708;18.568;2023-04-25T01:15:15;96384.06;;;10.87;100.00
31346;BME280;21711;49.708;18.568;2023-04-25T01:17:43;96378.09;;;11.10;100.00
31346;BME280;21711;49.708;18.568;2023-04-25T01:20:11;96379.94;;;10.95;100.00
31346;BME280;21711;49.708;18.568;2023-04-25T01:22:39;96386.72;;;10.59;100.00
31346;BME280;21711;49.708;18.568;2023-04-25T01:25:07;96383.69;;;10.66;100.00
31346;BME280;21711;49.708;18.568;2023-04-25T01:27:36;96395.44;;;10.88;100.00
31346;BME280;21711;49.708;18.568;2023-04-25T01:30:06;96389.38;;;11.01;100.00
31346;BME280;21711;49.708;18.568;2023-04-25T01:32:34;96385.59;;;11.16;100.00
31346;BME280;21711;49.708;18.568;2023-04-25T01:35:08;96389.25;;;11.07;100.00
31346;BME280;21711;49.708;18.568;2023-04-25T01:37:43;96389.69;;;10.72;100.00
31346;BME280;21711;49.708;18.568;2023-04-25T01:40:13;96391.94;;;10.78;100.00
31346;BME280;21711;49.708;18.568;2023-04-25T01:42:43;96397.13;;;10.84;100.00
31346;BME280;21711;49.708;18.568;2023-04-25T01:45:12;96398.69;;;10.85;100.00
31346;BME280;21711;49.708;18.568;2023-04-25T01:47:39;96397.19;;;10.92;100.00
31346;BME280;21711;49.708;18.568;2023-04-25T01:50:08;96402.09;;;10.99;100.00
31346;BME280;21711;49.708;18.568;2023-04-25T01:52:37;96393.38;;;10.85;100.00
31346;BME280;21711;49.708;18.568;2023-04-25T01:55:05;96401.59;;;10.83;100.00
31346;BME280;21711;49.708;18.568;2023-04-25T01:57:35;96403.69;;;10.58;100.00
31346;BME280;21711;49.708;18.568;2023-04-25T02:00:05;96394.09;;;10.62;100.00
31346;BME280;21711;49.708;18.568;2023-04-25T02:02:40;96399.28;;;10.54;100.00
31346;BME280;21711;49.708;18.568;2023-04-25T02:05:22;96404.38;;;10.64;100.00
31346;BME280;21711;49.708;18.568;2023-04-25T02:07:51;96396.94;;;10.52;100.00
31346;BME280;21711;49.708;18.568;2023-04-25T02:10:18;96405.44;;;10.77;100.00
31346;BME280;21711;49.708;18.568;2023-04-25T02:13:06;96404.16;;;10.74;100.00
31346;BME280;21711;49.708;18.568;2023-04-25T02:15:53;96400.34;;;10.81;100.00
31346;BME280;21711;49.708;18.568;2023-04-25T02:18:21;96407.59;;;10.61;100.00
31346;BME280;21711;49.708;18.568;2023-04-25T02:20:48;96413.16;;;10.59;100.00
31346;BME280;21711;49.708;18.568;2023-04-25T02:23:16;96408.16;;;10.44;100.00
31346;BME280;21711;49.708;18.568;2023-04-25T02:25:46;96405.22;;;10.31;100.00
31346;BME280;21711;49.708;18.568;2023-04-25T02:28:13;96409.72;;;10.45;100.00
31346;BME280;21711;49.708;18.568;2023-04-25T02:30:40;96405.94;;;10.51;100.00
31346;BME280;21711;49.708;18.568;2023-04-25T02:33:08;96408.09;;;10.16;100.00
31346;BME280;21711;49.708;18.568;2023-04-25T02:35:36;96409.28;;;10.23;100.00
31346;BME280;21711;49.708;18.568;2023-04-25T02:38:03;96415.19;;;10.34;100.00
31346;BME280;21711;49.708;18.568;2023-04-25T02:40:32;96414.66;;;10.18;100.00
31346;BME280;21711;49.708;18.568;2023-04-25T02:42:59;96416.47;;;10.04;100.00
31346;BME280;21711;49.708;18.568;2023-04-25T02:45:27;96408.00;;;10.21;100.00
31346;BME280;21711;49.708;18.568;2023-04-25T02:47:55;96409.13;;;10.34;100.00
31346;BME280;21711;49.708;18.568;2023-04-25T02:50:22;96408.44;;;9.95;100.00
31346;BME280;21711;49.708;18.568;2023-04-25T02:52:50;96412.00;;;10.04;100.00
31346;BME280;21711;49.708;18.568;2023-04-25T02:55:22;96410.75;;;10.16;100.00
31346;BME280;21711;49.708;18.568;2023-04-25T02:57:53;96409.25;;;10.09;100.00
31346;BME280;21711;49.708;18.568;2023-04-25T03:00:35;96402.63;;;10.12;100.00
31346;BME280;21711;49.708;18.568;2023-04-25T03:03:02;96404.22;;;10.27;100.00
31346;BME280;21711;49.708;18.568;2023-04-25T03:05:30;96407.31;;;10.15;100.00
31346;BME280;21711;49.708;18.568;2023-04-25T03:07:58;96405.78;;;10.42;100.00
31346;BME280;21711;49.708;18.568;2023-04-25T03:10:26;96399.31;;;10.34;100.00
31346;BME280;21711;49.708;18.568;2023-04-25T03:12:56;96407.91;;;10.26;100.00
31346;BME280;21711;49.708;18.568;2023-04-25T03:15:23;96404.31;;;10.36;100.00
31346;BME280;21711;49.708;18.568;2023-04-25T03:17:52;96407.44;;;10.38;100.00
31346;BME280;21711;49.708;18.568;2023-04-25T03:20:19;96408.97;;;10.11;100.00
31346;BME280;21711;49.708;18.568;2023-04-25T03:22:47;96418.09;;;10.33;100.00
31346;BME280;21711;49.708;18.568;2023-04-25T03:25:14;96418.03;;;10.05;100.00
31346;BME280;21711;49.708;18.568;2023-04-25T03:27:42;96412.53;;;10.34;100.00
31346;BME280;21711;49.708;18.568;2023-04-25T03:30:10;96418.00;;;10.38;100.00
31346;BME280;21711;49.708;18.568;2023-04-25T03:32:39;96420.06;;;10.27;100.00
31346;BME280;21711;49.708;18.568;2023-04-25T03:35:07;96412.34;;;10.31;100.00
31346;BME280;21711;49.708;18.568;2023-04-25T03:37:34;96415.19;;;10.34;100.00
31346;BME280;21711;49.708;18.568;2023-04-25T03:40:02;96414.97;;;10.31;100.00
31346;BME280;21711;49.708;18.568;2023-04-25T03:42:49;96417.63;;;10.31;100.00
31346;BME280;21711;49.708;18.568;2023-04-25T03:45:17;96415.69;;;10.36;100.00
31346;BME280;21711;49.708;18.568;2023-04-25T03:47:45;96415.69;;;10.36;100.00
31346;BME280;21711;49.708;18.568;2023-04-25T03:50:12;96417.81;;;10.34;100.00
31346;BME280;21711;49.708;18.568;2023-04-25T03:52:40;96426.78;;;10.19;100.00
31346;BME280;21711;49.708;18.568;2023-04-25T03:55:08;96426.88;;;10.14;100.00
31346;BME280;21711;49.708;18.568;2023-04-25T03:57:36;96433.13;;;10.04;100.00
31346;BME280;21711;49.708;18.568;2023-04-25T04:00:04;96433.28;;;9.94;100.00
31346;BME280;21711;49.708;18.568;2023-04-25T04:02:39;96426.06;;;9.99;100.00
31346;BME280;21711;49.708;18.568;2023-04-25T04:05:10;96429.81;;;10.12;100.00
31346;BME280;21711;49.708;18.568;2023-04-25T04:07:45;96439.66;;;9.73;100.00
31346;BME280;21711;49.708;18.568;2023-04-25T04:10:12;96433.75;;;9.63;100.00
31346;BME280;21711;49.708;18.568;2023-04-25T04:12:40;96431.00;;;9.87;100.00
31346;BME280;21711;49.708;18.568;2023-04-25T04:15:09;96432.94;;;9.62;100.00
31346;BME280;21711;49.708;18.568;2023-04-25T04:17:36;96431.81;;;9.49;100.00
31346;BME280;21711;49.708;18.568;2023-04-25T04:20:05;96433.44;;;9.83;100.00
31346;BME280;21711;49.708;18.568;2023-04-25T04:22:35;96441.06;;;9.85;100.00
31346;BME280;21711;49.708;18.568;2023-04-25T04:25:08;96440.41;;;9.93;100.00
31346;BME280;21711;49.708;18.568;2023-04-25T04:28:09;96452.31;;;10.10;100.00
31346;BME280;21711;49.708;18.568;2023-04-25T04:31:04;96448.19;;;10.04;100.00
31346;BME280;21711;49.708;18.568;2023-04-25T04:33:32;96439.41;;;10.08;100.00
31346;BME280;21711;49.708;18.568;2023-04-25T04:36:03;96445.53;;;10.04;100.00
31346;BME280;21711;49.708;18.568;2023-04-25T04:38:31;96448.78;;;10.00;100.00
31346;BME280;21711;49.708;18.568;2023-04-25T04:41:02;96439.59;;;10.12;100.00
31346;BME280;21711;49.708;18.568;2023-04-25T04:43:45;96439.75;;;10.35;100.00
31346;BME280;21711;49.708;18.568;2023-04-25T04:46:41;96434.84;;;10.42;100.00
31346;BME280;21711;49.708;18.568;2023-04-25T04:49:13;96439.56;;;9.98;100.00
31346;BME280;21711;49.708;18.568;2023-04-25T04:52:03;96444.59;;;10.13;100.00
31346;BME280;21711;49.708;18.568;2023-04-25T04:54:51;96442.16;;;10.17;100.00
31346;BME280;21711;49.708;18.568;2023-04-25T04:57:54;96442.31;;;10.07;100.00
31346;BME280;21711;49.708;18.568;2023-04-25T05:00:40;96441.41;;;10.31;100.00
31346;BME280;21711;49.708;18.568;2023-04-25T05:03:37;96445.31;;;10.33;100.00
31346;BME280;21711;49.708;18.568;2023-04-25T05:06:22;96448.34;;;10.40;100.00
31346;BME280;21711;49.708;18.568;2023-04-25T05:09:13;96445.97;;;10.11;100.00
31346;BME280;21711;49.708;18.568;2023-04-25T05:11:53;96448.53;;;10.16;100.00
31346;BME280;21711;49.708;18.568;2023-04-25T05:14:50;96446.72;;;10.11;100.00
31346;BME280;21711;49.708;18.568;2023-04-25T05:17:36;96454.75;;;10.06;100.00
31346;BME280;21711;49.708;18.568;2023-04-25T05:20:22;96446.59;;;10.22;100.00
31346;BME280;21711;49.708;18.568;2023-04-25T05:23:02;96445.63;;;10.32;100.00
31346;BME280;21711;49.708;18.568;2023-04-25T05:25:52;96446.72;;;10.45;100.00
31346;BME280;21711;49.708;18.568;2023-04-25T05:28:42;96441.50;;;10.25;100.00
31346;BME280;21711;49.708;18.568;2023-04-25T05:31:24;96440.41;;;10.26;100.00
31346;BME280;21711;49.708;18.568;2023-04-25T05:34:02;96440.03;;;10.33;100.00
31346;BME280;21711;49.708;18.568;2023-04-25T05:36:41;96444.13;;;10.25;100.00
31346;BME280;21711;49.708;18.568;2023-04-25T05:39:08;96439.13;;;10.24;100.00
31346;BME280;21711;49.708;18.568;2023-04-25T05:41:54;96447.25;;;10.27;100.00
31346;BME280;21711;49.708;18.568;2023-04-25T05:44:53;96442.78;;;10.42;100.00
31346;BME280;21711;49.708;18.568;2023-04-25T05:47:31;96440.84;;;10.34;100.00
31346;BME280;21711;49.708;18.568;2023-04-25T05:50:13;96441.66;;;10.15;100.00
31346;BME280;21711;49.708;18.568;2023-04-25T05:52:51;96456.69;;;10.34;100.00
31346;BME280;21711;49.708;18.568;2023-04-25T05:55:44;96452.34;;;10.71;100.00
31346;BME280;21711;49.708;18.568;2023-04-25T05:58:23;96448.34;;;10.26;100.00
31346;BME280;21711;49.708;18.568;2023-04-25T06:00:51;96445.78;;;10.55;100.00
31346;BME280;21711;49.708;18.568;2023-04-25T06:03:18;96456.34;;;10.69;100.00
31346;BME280;21711;49.708;18.568;2023-04-25T06:05:48;96462.91;;;10.57;100.00
31346;BME280;21711;49.708;18.568;2023-04-25T06:08:16;96460.22;;;10.76;100.00
31346;BME280;21711;49.708;18.568;2023-04-25T06:10:43;96458.72;;;10.70;100.00
31346;BME280;21711;49.708;18.568;2023-04-25T06:13:10;96461.34;;;11.26;100.00
31346;BME280;21711;49.708;18.568;2023-04-25T06:15:38;96464.19;;;11.44;100.00
31346;BME280;21711;49.708;18.568;2023-04-25T06:18:07;96465.44;;;11.47;100.00
31346;BME280;21711;49.708;18.568;2023-04-25T06:20:34;96456.22;;;11.44;100.00
31346;BME280;21711;49.708;18.568;2023-04-25T06:23:02;96461.72;;;11.48;100.00
31346;BME280;21711;49.708;18.568;2023-04-25T06:25:39;96461.25;;;11.31;100.00
31346;BME280;21711;49.708;18.568;2023-04-25T06:28:06;96467.28;;;11.46;100.00
31346;BME280;21711;49.708;18.568;2023-04-25T06:30:34;96466.66;;;11.63;100.00
31346;BME280;21711;49.708;18.568;2023-04-25T06:33:06;96466.16;;;11.98;100.00
31346;BME280;21711;49.708;18.568;2023-04-25T06:35:36;96467.09;;;12.16;100.00
31346;BME280;21711;49.708;18.568;2023-04-25T06:38:06;96460.38;;;12.19;100.00
31346;BME280;21711;49.708;18.568;2023-04-25T06:40:35;96460.22;;;11.55;100.00
31346;BME280;21711;49.708;18.568;2023-04-25T06:43:03;96460.44;;;11.82;100.00
31346;BME280;21711;49.708;18.568;2023-04-25T06:45:54;96463.16;;;11.91;100.00
31346;BME280;21711;49.708;18.568;2023-04-25T06:48:23;96462.66;;;12.57;100.00
31346;BME280;21711;49.708;18.568;2023-04-25T06:50:51;96460.47;;;12.59;100.00
31346;BME280;21711;49.708;18.568;2023-04-25T06:53:19;96457.41;;;12.75;100.00
31346;BME280;21711;49.708;18.568;2023-04-25T06:55:51;96470.41;;;12.85;100.00
31346;BME280;21711;49.708;18.568;2023-04-25T06:58:21;96452.31;;;12.87;100.00
31346;BME280;21711;49.708;18.568;2023-04-25T07:00:56;96456.66;;;11.97;100.00
31346;BME280;21711;49.708;18.568;2023-04-25T07:03:25;96452.03;;;11.43;100.00
31346;BME280;21711;49.708;18.568;2023-04-25T07:05:57;96455.56;;;11.98;100.00
31346;BME280;21711;49.708;18.568;2023-04-25T07:08:25;96454.56;;;12.08;100.00
31346;BME280;21711;49.708;18.568;2023-04-25T07:10:52;96456.44;;;12.30;100.00
31346;BME280;21711;49.708;18.568;2023-04-25T07:13:19;96453.91;;;12.57;100.00
31346;BME280;21711;49.708;18.568;2023-04-25T07:15:47;96455.16;;;12.28;100.00
31346;BME280;21711;49.708;18.568;2023-04-25T07:18:17;96456.06;;;12.23;100.00
31346;BME280;21711;49.708;18.568;2023-04-25T07:20:44;96455.19;;;12.68;100.00
31346;BME280;21711;49.708;18.568;2023-04-25T07:23:12;96463.00;;;13.23;100.00
31346;BME280;21711;49.708;18.568;2023-04-25T07:25:39;96461.09;;;13.06;100.00
31346;BME280;21711;49.708;18.568;2023-04-25T07:28:07;96462.56;;;13.29;100.00
31346;BME280;21711;49.708;18.568;2023-04-25T07:30:35;96464.69;;;13.01;100.00
31346;BME280;21711;49.708;18.568;2023-04-25T07:33:03;96453.13;;;13.06;100.00
31346;BME280;21711;49.708;18.568;2023-04-25T07:35:31;96457.81;;;13.58;100.00
31346;BME280;21711;49.708;18.568;2023-04-25T07:37:58;96462.41;;;14.32;100.00
31346;BME280;21711;49.708;18.568;2023-04-25T07:40:26;96459.47;;;14.90;100.00
31346;BME280;21711;49.708;18.568;2023-04-25T07:43:02;96463.97;;;15.71;100.00
31346;BME280;21711;49.708;18.568;2023-04-25T07:45:37;96464.50;;;15.86;99.58
31346;BME280;21711;49.708;18.568;2023-04-25T07:48:05;96453.25;;;16.01;90.83
31346;BME280;21711;49.708;18.568;2023-04-25T07:50:36;96456.97;;;16.68;82.37
31346;BME280;21711;49.708;18.568;2023-04-25T07:53:03;96456.31;;;15.18;88.19
31346;BME280;21711;49.708;18.568;2023-04-25T07:55:36;96462.50;;;15.10;85.30
31346;BME280;21711;49.708;18.568;2023-04-25T07:58:14;96454.44;;;14.89;79.97
31346;BME280;21711;49.708;18.568;2023-04-25T08:00:44;96454.91;;;15.21;84.44
31346;BME280;21711;49.708;18.568;2023-04-25T08:03:27;96456.69;;;15.38;85.36
31346;BME280;21711;49.708;18.568;2023-04-25T08:05:55;96454.94;;;14.73;86.02
31346;BME280;21711;49.708;18.568;2023-04-25T08:08:25;96456.78;;;14.42;85.28
31346;BME280;21711;49.708;18.568;2023-04-25T08:10:52;96459.28;;;14.48;88.56
31346;BME280;21711;49.708;18.568;2023-04-25T08:13:20;96455.13;;;13.67;89.98
31346;BME280;21711;49.708;18.568;2023-04-25T08:15:48;96447.16;;;13.49;89.24
31346;BME280;21711;49.708;18.568;2023-04-25T08:18:15;96445.31;;;13.67;87.04
31346;BME280;21711;49.708;18.568;2023-04-25T08:20:45;96450.72;;;13.36;90.23
31346;BME280;21711;49.708;18.568;2023-04-25T08:23:14;96451.81;;;13.44;89.45
31346;BME280;21711;49.708;18.568;2023-04-25T08:26:05;96449.19;;;13.79;87.12
31346;BME280;21711;49.708;18.568;2023-04-25T08:28:35;96447.78;;;14.65;83.99
31346;BME280;21711;49.708;18.568;2023-04-25T08:31:03;96448.06;;;14.81;84.50
31346;BME280;21711;49.708;18.568;2023-04-25T08:33:39;96456.34;;;15.61;82.53
31346;BME280;21711;49.708;18.568;2023-04-25T08:36:26;96456.22;;;16.92;71.42
31346;BME280;21711;49.708;18.568;2023-04-25T08:39:17;96462.63;;;16.66;73.04
31346;BME280;21711;49.708;18.568;2023-04-25T08:42:02;96450.81;;;14.54;70.74
31346;BME280;21711;49.708;18.568;2023-04-25T08:44:30;96453.56;;;14.76;65.95
31346;BME280;21711;49.708;18.568;2023-04-25T08:47:04;96454.78;;;14.22;70.31
31346;BME280;21711;49.708;18.568;2023-04-25T08:49:36;96458.38;;;14.73;69.65
31346;BME280;21711;49.708;18.568;2023-04-25T08:52:04;96456.75;;;15.50;69.28
31346;BME280;21711;49.708;18.568;2023-04-25T08:54:35;96464.50;;;15.64;66.99
31346;BME280;21711;49.708;18.568;2023-04-25T08:57:06;96458.38;;;15.43;66.09
31346;BME280;21711;49.708;18.568;2023-04-25T08:59:35;96458.84;;;15.87;64.10
31346;BME280;21711;49.708;18.568;2023-04-25T09:02:06;96455.41;;;15.65;66.57
31346;BME280;21711;49.708;18.568;2023-04-25T09:04:33;96456.69;;;15.81;63.32
31346;BME280;21711;49.708;18.568;2023-04-25T09:07:00;96454.88;;;15.51;64.86
31346;BME280;21711;49.708;18.568;2023-04-25T09:09:29;96446.63;;;14.36;69.30
31346;BME280;21711;49.708;18.568;2023-04-25T09:11:57;96448.19;;;14.37;66.03
31346;BME280;21711;49.708;18.568;2023-04-25T09:14:25;96454.44;;;14.89;68.50
31346;BME280;21711;49.708;18.568;2023-04-25T09:17:03;96455.41;;;14.84;69.18
31346;BME280;21711;49.708;18.568;2023-04-25T09:19:40;96446.72;;;14.48;70.11
31346;BME280;21711;49.708;18.568;2023-04-25T09:22:29;96452.19;;;14.52;66.46
31346;BME280;21711;49.708;18.568;2023-04-25T09:24:57;96446.72;;;14.96;65.05
31346;BME280;21711;49.708;18.568;2023-04-25T09:27:29;96452.16;;;13.95;59.76
31346;BME280;21711;49.708;18.568;2023-04-25T09:30:04;96448.88;;;13.63;63.63
31346;BME280;21711;49.708;18.568;2023-04-25T09:32:47;96445.22;;;14.86;62.42
31346;BME280;21711;49.708;18.568;2023-04-25T09:35:24;96454.97;;;15.33;57.86
31346;BME280;21711;49.708;18.568;2023-04-25T09:37:58;96452.41;;;15.46;60.35
31346;BME280;21711;49.708;18.568;2023-04-25T09:40:54;96450.72;;;14.15;60.22
31346;BME280;21711;49.708;18.568;2023-04-25T09:43:34;96450.91;;;14.01;60.81
31346;BME280;21711;49.708;18.568;2023-04-25T09:46:03;96446.06;;;14.69;59.72
31346;BME280;21711;49.708;18.568;2023-04-25T09:48:35;96448.63;;;14.95;58.83
31346;BME280;21711;49.708;18.568;2023-04-25T09:51:11;96440.44;;;14.62;60.68
31346;BME280;21711;49.708;18.568;2023-04-25T09:53:46;96454.03;;;13.94;59.71
31346;BME280;21711;49.708;18.568;2023-04-25T09:56:36;96452.47;;;14.77;62.18
31346;BME280;21711;49.708;18.568;2023-04-25T09:59:07;96450.72;;;15.11;58.63
31346;BME280;21711;49.708;18.568;2023-04-25T10:01:36;96447.94;;;15.07;59.36
31346;BME280;21711;49.708;18.568;2023-04-25T10:04:13;96454.47;;;14.80;58.78
31346;BME280;21711;49.708;18.568;2023-04-25T10:06:57;96447.66;;;15.30;58.57
31346;BME280;21711;49.708;18.568;2023-04-25T10:09:26;96452.34;;;15.55;56.55
31346;BME280;21711;49.708;18.568;2023-04-25T10:11:59;96444.72;;;15.87;54.41
31346;BME280;21711;49.708;18.568;2023-04-25T10:14:28;96455.13;;;15.80;53.60
31346;BME280;21711;49.708;18.568;2023-04-25T10:16:58;96455.19;;;15.92;54.20
31346;BME280;21711;49.708;18.568;2023-04-25T10:19:27;96453.03;;;16.40;52.46
31346;BME280;21711;49.708;18.568;2023-04-25T10:22:06;96453.84;;;17.03;52.26
31346;BME280;21711;49.708;18.568;2023-04-25T10:24:38;96441.94;;;16.04;52.15
31346;BME280;21711;49.708;18.568;2023-04-25T10:27:06;96436.50;;;15.07;53.68
31346;BME280;21711;49.708;18.568;2023-04-25T10:29:35;96453.81;;;14.35;57.59
31346;BME280;21711;49.708;18.568;2023-04-25T10:32:03;96446.28;;;15.67;55.92
31346;BME280;21711;49.708;18.568;2023-04-25T10:34:44;96449.34;;;16.33;54.53
31346;BME280;21711;49.708;18.568;2023-04-25T10:37:15;96447.78;;;16.32;51.73
31346;BME280;21711;49.708;18.568;2023-04-25T10:39:42;96444.41;;;16.10;50.89
31346;BME280;21711;49.708;18.568;2023-04-25T10:42:11;96439.59;;;15.39;53.32
31346;BME280;21711;49.708;18.568;2023-04-25T10:44:39;96433.84;;;15.07;54.19
31346;BME280;21711;49.708;18.568;2023-04-25T10:47:08;96431.47;;;15.14;52.61
31346;BME280;21711;49.708;18.568;2023-04-25T10:49:42;96445.34;;;15.20;53.20
31346;BME280;21711;49.708;18.568;2023-04-25T10:52:27;96448.19;;;15.45;53.34
31346;BME280;21711;49.708;18.568;2023-04-25T10:54:57;96442.84;;;15.87;51.73
31346;BME280;21711;49.708;18.568;2023-04-25T10:57:46;96443.19;;;15.43;53.69
31346;BME280;21711;49.708;18.568;2023-04-25T11:00:19;96444.34;;;15.33;54.56
31346;BME280;21711;49.708;18.568;2023-04-25T11:02:58;96438.88;;;15.30;54.30
31346;BME280;21711;49.708;18.568;2023-04-25T11:05:33;96444.03;;;14.66;55.44
31346;BME280;21711;49.708;18.568;2023-04-25T11:08:46;96432.00;;;14.51;54.26
31346;BME280;21711;49.708;18.568;2023-04-25T11:11:19;96438.34;;;15.15;54.70
31346;BME280;21711;49.708;18.568;2023-04-25T11:13:50;96442.88;;;15.15;53.89
31346;BME280;21711;49.708;18.568;2023-04-25T11:16:18;96446.78;;;14.87;53.34
31346;BME280;21711;49.708;18.568;2023-04-25T11:18:57;96440.47;;;15.01;55.12
31346;BME280;21711;49.708;18.568;2023-04-25T11:21:28;96442.94;;;14.76;56.07
31346;BME280;21711;49.708;18.568;2023-04-25T11:23:56;96450.97;;;14.97;55.95
31346;BME280;21711;49.708;18.568;2023-04-25T11:26:24;96443.16;;;14.92;57.11
31346;BME280;21711;49.708;18.568;2023-04-25T11:28:58;96436.31;;;14.82;60.33
31346;BME280;21711;49.708;18.568;2023-04-25T11:31:29;96440.28;;;14.76;54.66
31346;BME280;21711;49.708;18.568;2023-04-25T11:33:57;96438.34;;;15.15;54.29
31346;BME280;21711;49.708;18.568;2023-04-25T11:36:25;96441.09;;;14.97;56.95
31346;BME280;21711;49.708;18.568;2023-04-25T11:38:54;96440.31;;;14.58;56.99
31346;BME280;21711;49.708;18.568;2023-04-25T11:41:21;96436.31;;;14.73;58.13
31346;BME280;21711;49.708;18.568;2023-04-25T11:43:49;96443.38;;;15.08;57.93
31346;BME280;21711;49.708;18.568;2023-04-25T11:46:19;96441.59;;;15.21;54.23
31346;BME280;21711;49.708;18.568;2023-04-25T11:48:47;96435.88;;;15.10;52.51
31346;BME280;21711;49.708;18.568;2023-04-25T11:51:15;96431.38;;;15.02;55.76
31346;BME280;21711;49.708;18.568;2023-04-25T11:53:44;96443.31;;;14.86;56.41
31346;BME280;21711;49.708;18.568;2023-04-25T11:56:12;96439.66;;;15.00;55.34
31346;BME280;21711;49.708;18.568;2023-04-25T11:59:15;96441.47;;;14.87;55.27
31346;BME280;21711;49.708;18.568;2023-04-25T12:01:50;96446.03;;;15.38;55.13
31346;BME280;21711;49.708;18.568;2023-04-25T12:04:24;96452.91;;;15.39;55.29
31346;BME280;21711;49.708;18.568;2023-04-25T12:06:54;96437.03;;;15.21;56.10
31346;BME280;21711;49.708;18.568;2023-04-25T12:09:31;96439.13;;;15.37;56.25
31346;BME280;21711;49.708;18.568;2023-04-25T12:12:00;96437.28;;;15.07;54.78
31346;BME280;21711;49.708;18.568;2023-04-25T12:14:33;96434.31;;;14.61;56.14
31346;BME280;21711;49.708;18.568;2023-04-25T12:17:03;96442.13;;;15.14;55.73
31346;BME280;21711;49.708;18.568;2023-04-25T12:19:37;96446.69;;;15.56;54.47
31346;BME280;21711;49.708;18.568;2023-04-25T12:22:22;96439.31;;;15.74;55.07
31346;BME280;21711;49.708;18.568;2023-04-25T12:24:50;96437.53;;;16.21;54.17
31346;BME280;21711;49.708;18.568;2023-04-25T12:27:21;96438.19;;;16.18;49.73
31346;BME280;21711;49.708;18.568;2023-04-25T12:29:55;96444.59;;;16.51;52.77
31346;BME280;21711;49.708;18.568;2023-04-25T12:32:24;96445.63;;;16.83;50.62
31346;BME280;21711;49.708;18.568;2023-04-25T12:34:52;96439.16;;;16.60;51.01
31346;BME280;21711;49.708;18.568;2023-04-25T12:37:19;96431.94;;;16.73;54.48
31346;BME280;21711;49.708;18.568;2023-04-25T12:39:46;96427.72;;;16.72;50.62
31346;BME280;21711;49.708;18.568;2023-04-25T12:42:14;96430.28;;;16.68;54.80
31346;BME280;21711;49.708;18.568;2023-04-25T12:44:41;96428.72;;;16.08;55.13
31346;BME280;21711;49.708;18.568;2023-04-25T12:47:09;96427.19;;;16.20;53.99
31346;BME280;21711;49.708;18.568;2023-04-25T12:49:36;96432.38;;;16.75;52.09
31346;BME280;21711;49.708;18.568;2023-04-25T12:52:04;96427.41;;;17.11;51.09
31346;BME280;21711;49.708;18.568;2023-04-25T12:54:31;96425.38;;;16.70;49.98
31346;BME280;21711;49.708;18.568;2023-04-25T12:56:58;96429.19;;;17.19;50.33
31346;BME280;21711;49.708;18.568;2023-04-25T12:59:26;96426.06;;;17.17;48.13
31346;BME280;21711;49.708;18.568;2023-04-25T13:01:53;96421.50;;;16.80;50.24
31346;BME280;21711;49.708;18.568;2023-04-25T13:04:21;96419.47;;;16.52;54.25
31346;BME280;21711;49.708;18.568;2023-04-25T13:06:48;96431.50;;;16.70;49.86
31346;BME280;21711;49.708;18.568;2023-04-25T13:09:16;96424.50;;;16.78;51.35
31346;BME280;21711;49.708;18.568;2023-04-25T13:11:43;96421.59;;;16.96;55.25